Terminal Aerodrome Forecast
Issued by NWS

Home | Current Version | Previous Version | Text Only | Print | Product List | Glossary On
Versions: 1 2 3 4 5 6 7 8 9 10 11 12 13 14 15 16 17 18
000
FTUS41 KBGM 041528 AAA
TAFELM
TAF AMD
KELM 041528Z 0415/0512 26008KT P6SM BKN045
      TEMPO 0416/0418 3SM TSRA BR OVC025CB
     FM050000 VRB03KT P6SM SCT120=

USA.gov is the U.S. government's official web portal to all federal, state and local government web resources and services.